Accueil
METAR-TAF:

METAR-TAF

Aéroports :

Lyon / Saint Exupéry, France

Aéroport de Lyon-Saint-Exupéry

latitude: 45-44N, longitude: 005-05E, altitude: 248 m

Observation

Le bulletin a été fait il y a 19 minutes, à 01:30 UTC
Vent 7 kt de sud-est
Température 13°C
Humidité 67%
Pression 1025 hPa
Visibilité 10 km ou plus
pas de nuages en-dessous de 1500 mètres et pas de cumulonimbus.

METAR: LFLL 170130Z 13007KT CAVOK 13/07 Q1025 NOSIG

Heure: 03:49 (01:49 UTC)

Prévision

Le bulletin a été fait il y a 2 heures et 49 minutes, à 23:00 UTC
Prévision valable du 17 à 00 UTC au 18 à 06 UTC
Vent 6 kt de sud-est
Visibilité 10 km ou plus
pas de nuages en-dessous de 1500 mètres et pas de cumulonimbus.
Evoluant progressivement
du 17 à 07 UTC au 17 à 11 UTC
Vent 12 kt de sud

TAF: LFLL 162300Z 1700/1806 13006KT CAVOK BECMG 1707/1711 18012KT

Observations et prévisions météorologiques de plus de 4000 aéroports (messages METAR et TAF).

Les stations disponibles sont représentées par des disques jaunes et rouges sur la carte.

Passer la souris dessus pour voir le nom de la station.

Cliquer dessus pour voir les observations et prévisions météorologiques.

Pour changer de carte: cliquez sur les boutons verts avec une croix noire pour zoomer, sur le bouton vert avec un tiret pour effectuer un zoom arrière, ou sur les flèches vertes pour les cartes adjacentes.


METAR-TAF: